Lake Linganore, Maryland
Current Conditions -  °F | °C
As of 3:55 AM on Saturday 25 Oct 2014 (Local Time) from KFDK Reporting Station
Light Snow Light Snow  
Wind Chill: 46°   Ceiling: Unl
Heat Index: 46°   Visibility: 7mi
Dew Point: 37°   Wind: 0mph
Humidity: 71%   Direction: NA
Pressure: 29.98"   Gusts: NA
Location:  39.4015°N, 77.2845°W
Report Text: KFDK 250755Z AUTO 00000KT 7SM -SN CLR 08/03 A2998 RMK AO2
Loading
Personal Weather Stations






























Interactive Weather Map New forecast layout! Learn more

10-Day Weather Forecast

Advertisements
Track Severe Weather on mobile